sensor_id;sensor_type;location;lat;lon;timestamp;temperature;humidity
29729;DHT22;20055;51.498;11.960;2022-10-20T00:01:24;7.50;99.90
29729;DHT22;20055;51.498;11.960;2022-10-20T00:03:51;7.30;99.90
29729;DHT22;20055;51.498;11.960;2022-10-20T00:06:21;7.50;99.90
29729;DHT22;20055;51.498;11.960;2022-10-20T00:08:48;7.50;99.90
29729;DHT22;20055;51.498;11.960;2022-10-20T00:11:16;7.40;99.90
29729;DHT22;20055;51.498;11.960;2022-10-20T00:13:45;7.30;99.90
29729;DHT22;20055;51.498;11.960;2022-10-20T00:16:12;7.70;99.90
29729;DHT22;20055;51.498;11.960;2022-10-20T00:18:39;7.20;99.90
29729;DHT22;20055;51.498;11.960;2022-10-20T00:21:12;7.50;99.90
29729;DHT22;20055;51.498;11.960;2022-10-20T00:23:39;7.30;99.90
29729;DHT22;20055;51.498;11.960;2022-10-20T00:26:09;7.30;99.90
29729;DHT22;20055;51.498;11.960;2022-10-20T00:28:36;7.60;99.90
29729;DHT22;20055;51.498;11.960;2022-10-20T00:31:03;7.30;99.90
29729;DHT22;20055;51.498;11.960;2022-10-20T00:33:30;6.80;99.90
29729;DHT22;20055;51.498;11.960;2022-10-20T00:35:58;7.30;99.90
29729;DHT22;20055;51.498;11.960;2022-10-20T00:43:18;7.30;99.90
29729;DHT22;20055;51.498;11.960;2022-10-20T00:45:50;7.10;99.90
29729;DHT22;20055;51.498;11.960;2022-10-20T00:48:20;7.30;99.90
29729;DHT22;20055;51.498;11.960;2022-10-20T00:50:52;7.20;99.90
29729;DHT22;20055;51.498;11.960;2022-10-20T00:53:22;7.60;99.90
29729;DHT22;20055;51.498;11.960;2022-10-20T00:55:50;7.30;99.90
29729;DHT22;20055;51.498;11.960;2022-10-20T00:58:17;7.60;99.90
29729;DHT22;20055;51.498;11.960;2022-10-20T01:00:45;6.90;99.90
29729;DHT22;20055;51.498;11.960;2022-10-20T01:03:19;7.20;99.90
29729;DHT22;20055;51.498;11.960;2022-10-20T01:05:47;7.20;99.90
29729;DHT22;20055;51.498;11.960;2022-10-20T01:10:55;7.20;99.90
29729;DHT22;20055;51.498;11.960;2022-10-20T01:13:34;7.00;99.90
29729;DHT22;20055;51.498;11.960;2022-10-20T01:16:12;6.90;99.90
29729;DHT22;20055;51.498;11.960;2022-10-20T01:24:56;6.90;99.90
29729;DHT22;20055;51.498;11.960;2022-10-20T01:27:27;7.10;99.90
29729;DHT22;20055;51.498;11.960;2022-10-20T01:35:35;7.10;99.90
29729;DHT22;20055;51.498;11.960;2022-10-20T01:38:29;6.90;99.90
29729;DHT22;20055;51.498;11.960;2022-10-20T01:41:24;6.70;99.90
29729;DHT22;20055;51.498;11.960;2022-10-20T01:43:54;6.80;99.90
29729;DHT22;20055;51.498;11.960;2022-10-20T01:46:23;7.10;99.90
29729;DHT22;20055;51.498;11.960;2022-10-20T01:51:16;7.10;99.90
29729;DHT22;20055;51.498;11.960;2022-10-20T01:53:42;7.00;99.90
29729;DHT22;20055;51.498;11.960;2022-10-20T01:56:15;6.80;99.90
29729;DHT22;20055;51.498;11.960;2022-10-20T02:04:09;6.80;99.90
29729;DHT22;20055;51.498;11.960;2022-10-20T02:09:17;6.80;99.90
29729;DHT22;20055;51.498;11.960;2022-10-20T02:11:57;6.80;99.90
29729;DHT22;20055;51.498;11.960;2022-10-20T02:14:25;7.10;99.90
29729;DHT22;20055;51.498;11.960;2022-10-20T02:16:56;7.00;99.90
29729;DHT22;20055;51.498;11.960;2022-10-20T02:19:26;6.80;99.90
29729;DHT22;20055;51.498;11.960;2022-10-20T02:21:54;7.20;99.90
29729;DHT22;20055;51.498;11.960;2022-10-20T02:24:25;7.10;99.90
29729;DHT22;20055;51.498;11.960;2022-10-20T02:26:54;6.70;99.90
29729;DHT22;20055;51.498;11.960;2022-10-20T02:29:27;7.00;99.90
29729;DHT22;20055;51.498;11.960;2022-10-20T02:34:24;7.40;99.90
29729;DHT22;20055;51.498;11.960;2022-10-20T02:36:55;6.70;99.90
29729;DHT22;20055;51.498;11.960;2022-10-20T02:39:22;6.90;99.90
29729;DHT22;20055;51.498;11.960;2022-10-20T02:41:48;6.90;99.90
29729;DHT22;20055;51.498;11.960;2022-10-20T02:44:15;6.60;99.90
29729;DHT22;20055;51.498;11.960;2022-10-20T02:46:41;6.60;99.90
29729;DHT22;20055;51.498;11.960;2022-10-20T02:49:07;6.90;99.90
29729;DHT22;20055;51.498;11.960;2022-10-20T02:51:33;7.00;99.90
29729;DHT22;20055;51.498;11.960;2022-10-20T02:56:26;6.70;99.90
29729;DHT22;20055;51.498;11.960;2022-10-20T02:58:52;6.50;99.90
29729;DHT22;20055;51.498;11.960;2022-10-20T03:01:19;6.90;99.90
29729;DHT22;20055;51.498;11.960;2022-10-20T03:03:45;6.40;99.90
29729;DHT22;20055;51.498;11.960;2022-10-20T03:06:13;6.50;99.90
29729;DHT22;20055;51.498;11.960;2022-10-20T03:08:40;6.60;99.90
29729;DHT22;20055;51.498;11.960;2022-10-20T03:11:07;6.50;99.90
29729;DHT22;20055;51.498;11.960;2022-10-20T03:13:33;6.90;99.90
29729;DHT22;20055;51.498;11.960;2022-10-20T03:16:00;6.80;99.90
29729;DHT22;20055;51.498;11.960;2022-10-20T03:20:53;6.70;99.90
29729;DHT22;20055;51.498;11.960;2022-10-20T03:23:19;6.80;99.90
29729;DHT22;20055;51.498;11.960;2022-10-20T03:25:46;7.10;99.90
29729;DHT22;20055;51.498;11.960;2022-10-20T03:28:12;6.60;99.90
29729;DHT22;20055;51.498;11.960;2022-10-20T03:30:39;6.50;99.90
29729;DHT22;20055;51.498;11.960;2022-10-20T03:33:05;6.70;99.90
29729;DHT22;20055;51.498;11.960;2022-10-20T03:37:58;6.10;99.90
29729;DHT22;20055;51.498;11.960;2022-10-20T03:40:24;6.70;99.90
29729;DHT22;20055;51.498;11.960;2022-10-20T03:42:50;6.60;99.90
29729;DHT22;20055;51.498;11.960;2022-10-20T03:47:43;6.10;99.90
29729;DHT22;20055;51.498;11.960;2022-10-20T03:52:36;6.50;99.90
29729;DHT22;20055;51.498;11.960;2022-10-20T03:57:28;6.70;99.90
29729;DHT22;20055;51.498;11.960;2022-10-20T04:02:31;6.50;99.90
29729;DHT22;20055;51.498;11.960;2022-10-20T04:07:24;6.80;99.90
29729;DHT22;20055;51.498;11.960;2022-10-20T04:12:16;6.80;99.90
29729;DHT22;20055;51.498;11.960;2022-10-20T04:14:43;6.50;99.90
29729;DHT22;20055;51.498;11.960;2022-10-20T04:19:35;6.60;99.90
29729;DHT22;20055;51.498;11.960;2022-10-20T04:22:02;6.30;99.90
29729;DHT22;20055;51.498;11.960;2022-10-20T04:24:28;6.50;99.90
29729;DHT22;20055;51.498;11.960;2022-10-20T04:26:54;6.50;99.90
29729;DHT22;20055;51.498;11.960;2022-10-20T04:31:47;6.00;99.90
29729;DHT22;20055;51.498;11.960;2022-10-20T04:36:40;6.30;99.90
29729;DHT22;20055;51.498;11.960;2022-10-20T04:43:59;7.10;99.90
29729;DHT22;20055;51.498;11.960;2022-10-20T04:51:19;7.00;99.90
29729;DHT22;20055;51.498;11.960;2022-10-20T04:56:14;6.50;99.90
29729;DHT22;20055;51.498;11.960;2022-10-20T04:58:51;6.60;99.90
29729;DHT22;20055;51.498;11.960;2022-10-20T05:01:19;6.60;99.90
29729;DHT22;20055;51.498;11.960;2022-10-20T05:03:46;6.70;99.90
29729;DHT22;20055;51.498;11.960;2022-10-20T05:06:14;6.60;99.90
29729;DHT22;20055;51.498;11.960;2022-10-20T05:08:43;6.60;99.90
29729;DHT22;20055;51.498;11.960;2022-10-20T05:11:10;6.70;99.90
29729;DHT22;20055;51.498;11.960;2022-10-20T05:13:36;7.00;99.90
29729;DHT22;20055;51.498;11.960;2022-10-20T05:18:31;6.40;99.90
29729;DHT22;20055;51.498;11.960;2022-10-20T05:23:24;6.50;99.90
29729;DHT22;20055;51.498;11.960;2022-10-20T05:25:50;6.70;99.90
29729;DHT22;20055;51.498;11.960;2022-10-20T05:33:10;6.20;99.90
29729;DHT22;20055;51.498;11.960;2022-10-20T05:38:02;6.50;99.90
29729;DHT22;20055;51.498;11.960;2022-10-20T05:40:30;6.10;99.90
29729;DHT22;20055;51.498;11.960;2022-10-20T05:52:42;6.30;99.90
29729;DHT22;20055;51.498;11.960;2022-10-20T06:07:30;6.50;99.90
29729;DHT22;20055;51.498;11.960;2022-10-20T06:12:25;6.00;99.90
29729;DHT22;20055;51.498;11.960;2022-10-20T06:24:38;6.20;99.90
29729;DHT22;20055;51.498;11.960;2022-10-20T06:29:31;6.30;99.90
29729;DHT22;20055;51.498;11.960;2022-10-20T06:34:24;6.60;99.90
29729;DHT22;20055;51.498;11.960;2022-10-20T06:39:20;6.10;99.90
29729;DHT22;20055;51.498;11.960;2022-10-20T06:41:48;6.20;99.90
29729;DHT22;20055;51.498;11.960;2022-10-20T06:44:19;6.20;99.90
29729;DHT22;20055;51.498;11.960;2022-10-20T06:49:13;6.50;99.90
29729;DHT22;20055;51.498;11.960;2022-10-20T06:51:40;6.60;99.90
29729;DHT22;20055;51.498;11.960;2022-10-20T06:54:06;6.70;99.90
29729;DHT22;20055;51.498;11.960;2022-10-20T06:56:34;6.80;99.90
29729;DHT22;20055;51.498;11.960;2022-10-20T06:59:02;6.90;99.90
29729;DHT22;20055;51.498;11.960;2022-10-20T07:01:33;7.00;99.90
29729;DHT22;20055;51.498;11.960;2022-10-20T07:04:05;6.90;99.90
29729;DHT22;20055;51.498;11.960;2022-10-20T07:06:34;7.00;99.90
29729;DHT22;20055;51.498;11.960;2022-10-20T07:09:02;6.80;99.90
29729;DHT22;20055;51.498;11.960;2022-10-20T07:11:30;6.90;99.90
29729;DHT22;20055;51.498;11.960;2022-10-20T07:13:58;6.90;99.90
29729;DHT22;20055;51.498;11.960;2022-10-20T07:16:27;6.90;99.90
29729;DHT22;20055;51.498;11.960;2022-10-20T07:18:54;5.40;99.90
29729;DHT22;20055;51.498;11.960;2022-10-20T07:21:24;7.30;99.90
29729;DHT22;20055;51.498;11.960;2022-10-20T07:26:20;6.90;99.90
29729;DHT22;20055;51.498;11.960;2022-10-20T07:28:49;7.20;99.90
29729;DHT22;20055;51.498;11.960;2022-10-20T07:33:49;7.40;99.90
29729;DHT22;20055;51.498;11.960;2022-10-20T07:36:24;7.50;99.90
29729;DHT22;20055;51.498;11.960;2022-10-20T07:38:52;7.40;99.90
29729;DHT22;20055;51.498;11.960;2022-10-20T07:43:45;7.30;99.90
29729;DHT22;20055;51.498;11.960;2022-10-20T07:46:13;7.30;99.90
29729;DHT22;20055;51.498;11.960;2022-10-20T07:48:39;7.60;99.90
29729;DHT22;20055;51.498;11.960;2022-10-20T07:56:26;8.00;99.90
29729;DHT22;20055;51.498;11.960;2022-10-20T07:58:53;8.30;99.90
29729;DHT22;20055;51.498;11.960;2022-10-20T08:01:20;7.80;99.90
29729;DHT22;20055;51.498;11.960;2022-10-20T08:03:46;8.00;99.90
29729;DHT22;20055;51.498;11.960;2022-10-20T08:08:39;8.10;99.90
29729;DHT22;20055;51.498;11.960;2022-10-20T08:11:05;8.70;99.90
29729;DHT22;20055;51.498;11.960;2022-10-20T08:18:24;8.70;99.90
29729;DHT22;20055;51.498;11.960;2022-10-20T08:20:51;9.00;99.90
29729;DHT22;20055;51.498;11.960;2022-10-20T08:23:17;8.90;99.90
29729;DHT22;20055;51.498;11.960;2022-10-20T08:25:43;8.80;99.90
29729;DHT22;20055;51.498;11.960;2022-10-20T08:28:10;8.90;99.90
29729;DHT22;20055;51.498;11.960;2022-10-20T08:30:36;9.10;99.90
29729;DHT22;20055;51.498;11.960;2022-10-20T08:35:29;9.40;99.90
29729;DHT22;20055;51.498;11.960;2022-10-20T08:37:55;9.30;99.90
29729;DHT22;20055;51.498;11.960;2022-10-20T08:40:27;9.20;99.90
29729;DHT22;20055;51.498;11.960;2022-10-20T08:42:54;9.30;99.90
29729;DHT22;20055;51.498;11.960;2022-10-20T08:45:25;9.50;99.90
29729;DHT22;20055;51.498;11.960;2022-10-20T08:47:54;9.60;99.90
29729;DHT22;20055;51.498;11.960;2022-10-20T08:50:22;9.90;99.90
29729;DHT22;20055;51.498;11.960;2022-10-20T08:52:53;10.00;99.90
29729;DHT22;20055;51.498;11.960;2022-10-20T08:55:31;9.70;99.90
29729;DHT22;20055;51.498;11.960;2022-10-20T08:58:06;10.30;99.90
29729;DHT22;20055;51.498;11.960;2022-10-20T09:00:36;9.90;99.90
29729;DHT22;20055;51.498;11.960;2022-10-20T09:03:16;10.30;99.90
29729;DHT22;20055;51.498;11.960;2022-10-20T09:05:45;10.30;99.90
29729;DHT22;20055;51.498;11.960;2022-10-20T09:08:12;10.10;99.90
29729;DHT22;20055;51.498;11.960;2022-10-20T09:10:42;10.00;99.90
29729;DHT22;20055;51.498;11.960;2022-10-20T09:13:27;10.30;99.90
29729;DHT22;20055;51.498;11.960;2022-10-20T09:16:06;10.20;99.90
29729;DHT22;20055;51.498;11.960;2022-10-20T09:18:36;10.30;99.90
29729;DHT22;20055;51.498;11.960;2022-10-20T09:21:05;10.70;99.90
29729;DHT22;20055;51.498;11.960;2022-10-20T09:23:37;10.20;99.90
29729;DHT22;20055;51.498;11.960;2022-10-20T09:26:13;10.30;99.90
29729;DHT22;20055;51.498;11.960;2022-10-20T09:28:39;10.70;99.90
29729;DHT22;20055;51.498;11.960;2022-10-20T09:31:21;10.80;99.90
29729;DHT22;20055;51.498;11.960;2022-10-20T09:33:47;11.00;99.90
29729;DHT22;20055;51.498;11.960;2022-10-20T09:36:15;10.80;99.90
29729;DHT22;20055;51.498;11.960;2022-10-20T09:38:48;10.70;99.90
29729;DHT22;20055;51.498;11.960;2022-10-20T09:41:24;10.70;99.90
29729;DHT22;20055;51.498;11.960;2022-10-20T09:44:07;10.90;99.90
29729;DHT22;20055;51.498;11.960;2022-10-20T09:46:37;10.70;99.90
29729;DHT22;20055;51.498;11.960;2022-10-20T09:49:06;11.10;99.90
29729;DHT22;20055;51.498;11.960;2022-10-20T09:51:32;10.70;99.90
29729;DHT22;20055;51.498;11.960;2022-10-20T09:54:04;11.10;99.90
29729;DHT22;20055;51.498;11.960;2022-10-20T09:56:37;11.50;99.90
29729;DHT22;20055;51.498;11.960;2022-10-20T09:59:31;11.70;99.90
29729;DHT22;20055;51.498;11.960;2022-10-20T10:02:01;11.60;99.90
29729;DHT22;20055;51.498;11.960;2022-10-20T10:04:38;11.80;99.90
29729;DHT22;20055;51.498;11.960;2022-10-20T10:10:06;11.50;99.90
29729;DHT22;20055;51.498;11.960;2022-10-20T10:12:33;11.30;99.90
29729;DHT22;20055;51.498;11.960;2022-10-20T10:15:06;11.50;99.90
29729;DHT22;20055;51.498;11.960;2022-10-20T10:17:39;12.40;99.90
29729;DHT22;20055;51.498;11.960;2022-10-20T10:22:39;12.10;99.90
29729;DHT22;20055;51.498;11.960;2022-10-20T10:25:13;13.20;99.90
29729;DHT22;20055;51.498;11.960;2022-10-20T10:27:56;12.10;99.90
29729;DHT22;20055;51.498;11.960;2022-10-20T10:32:49;12.20;99.90
29729;DHT22;20055;51.498;11.960;2022-10-20T10:35:25;12.20;99.90
29729;DHT22;20055;51.498;11.960;2022-10-20T10:37:54;12.80;99.90
29729;DHT22;20055;51.498;11.960;2022-10-20T10:40:31;12.70;99.90
29729;DHT22;20055;51.498;11.960;2022-10-20T10:46:06;12.80;99.90
29729;DHT22;20055;51.498;11.960;2022-10-20T10:54:27;12.70;99.90
29729;DHT22;20055;51.498;11.960;2022-10-20T10:57:31;12.80;99.90
29729;DHT22;20055;51.498;11.960;2022-10-20T11:00:06;13.10;99.90
29729;DHT22;20055;51.498;11.960;2022-10-20T11:03:00;12.80;99.90
29729;DHT22;20055;51.498;11.960;2022-10-20T11:08:47;12.80;99.90
29729;DHT22;20055;51.498;11.960;2022-10-20T11:11:44;13.10;99.90
29729;DHT22;20055;51.498;11.960;2022-10-20T11:14:38;13.10;99.90
29729;DHT22;20055;51.498;11.960;2022-10-20T11:17:28;13.50;99.90
29729;DHT22;20055;51.498;11.960;2022-10-20T11:23:01;13.10;99.90
29729;DHT22;20055;51.498;11.960;2022-10-20T11:25:35;13.90;99.90
29729;DHT22;20055;51.498;11.960;2022-10-20T11:28:26;13.70;99.90
29729;DHT22;20055;51.498;11.960;2022-10-20T11:30:51;13.70;99.90
29729;DHT22;20055;51.498;11.960;2022-10-20T11:33:20;13.60;99.90
29729;DHT22;20055;51.498;11.960;2022-10-20T11:35:55;14.30;99.90
29729;DHT22;20055;51.498;11.960;2022-10-20T11:38:24;14.00;99.90
29729;DHT22;20055;51.498;11.960;2022-10-20T11:41:04;14.00;99.90
29729;DHT22;20055;51.498;11.960;2022-10-20T11:46:10;13.30;99.90
29729;DHT22;20055;51.498;11.960;2022-10-20T11:48:42;13.70;99.90
29729;DHT22;20055;51.498;11.960;2022-10-20T12:10:27;14.90;99.90
29729;DHT22;20055;51.498;11.960;2022-10-20T12:15:25;14.90;99.90
29729;DHT22;20055;51.498;11.960;2022-10-20T12:17:56;14.70;99.90
29729;DHT22;20055;51.498;11.960;2022-10-20T12:22:52;15.40;99.90
29729;DHT22;20055;51.498;11.960;2022-10-20T12:31:02;15.60;99.90
29729;DHT22;20055;51.498;11.960;2022-10-20T12:38:51;15.70;99.90
29729;DHT22;20055;51.498;11.960;2022-10-20T12:41:30;15.50;99.90
29729;DHT22;20055;51.498;11.960;2022-10-20T12:44:03;15.50;99.90
29729;DHT22;20055;51.498;11.960;2022-10-20T12:46:31;14.80;99.90
29729;DHT22;20055;51.498;11.960;2022-10-20T12:49:03;15.10;99.90
29729;DHT22;20055;51.498;11.960;2022-10-20T12:51:52;14.80;99.90
29729;DHT22;20055;51.498;11.960;2022-10-20T12:54:28;14.90;99.90
29729;DHT22;20055;51.498;11.960;2022-10-20T12:56:58;15.00;99.90
29729;DHT22;20055;51.498;11.960;2022-10-20T13:05:00;15.00;99.90
29729;DHT22;20055;51.498;11.960;2022-10-20T13:18:13;15.60;99.90
29729;DHT22;20055;51.498;11.960;2022-10-20T13:21:30;15.20;99.90
29729;DHT22;20055;51.498;11.960;2022-10-20T13:23:42;15.40;99.90
29729;DHT22;20055;51.498;11.960;2022-10-20T13:26:27;15.20;99.90
29729;DHT22;20055;51.498;11.960;2022-10-20T13:28:56;15.60;99.90
29729;DHT22;20055;51.498;11.960;2022-10-20T13:42:12;15.00;99.90
29729;DHT22;20055;51.498;11.960;2022-10-20T13:45:16;15.40;99.90
29729;DHT22;20055;51.498;11.960;2022-10-20T13:48:05;14.70;99.90
29729;DHT22;20055;51.498;11.960;2022-10-20T13:50:46;15.90;99.90
29729;DHT22;20055;51.498;11.960;2022-10-20T13:58:28;15.30;99.90
29729;DHT22;20055;51.498;11.960;2022-10-20T14:01:16;15.50;99.90
29729;DHT22;20055;51.498;11.960;2022-10-20T14:03:48;15.50;99.90
29729;DHT22;20055;51.498;11.960;2022-10-20T14:06:45;15.90;99.90
29729;DHT22;20055;51.498;11.960;2022-10-20T14:09:16;15.70;99.90
29729;DHT22;20055;51.498;11.960;2022-10-20T14:11:49;15.50;99.90
29729;DHT22;20055;51.498;11.960;2022-10-20T14:14:20;15.50;99.90
29729;DHT22;20055;51.498;11.960;2022-10-20T14:16:52;15.50;99.90
29729;DHT22;20055;51.498;11.960;2022-10-20T14:19:20;15.30;99.90
29729;DHT22;20055;51.498;11.960;2022-10-20T14:21:49;14.90;99.90
29729;DHT22;20055;51.498;11.960;2022-10-20T14:26:47;15.00;99.90
29729;DHT22;20055;51.498;11.960;2022-10-20T14:29:16;15.50;99.90
29729;DHT22;20055;51.498;11.960;2022-10-20T14:31:45;15.10;99.90
29729;DHT22;20055;51.498;11.960;2022-10-20T14:34:30;15.20;99.90
29729;DHT22;20055;51.498;11.960;2022-10-20T14:36:57;14.80;99.90
29729;DHT22;20055;51.498;11.960;2022-10-20T14:39:37;14.90;99.90
29729;DHT22;20055;51.498;11.960;2022-10-20T14:42:17;14.60;99.90
29729;DHT22;20055;51.498;11.960;2022-10-20T14:44:45;14.30;99.90
29729;DHT22;20055;51.498;11.960;2022-10-20T14:47:12;14.70;99.90
29729;DHT22;20055;51.498;11.960;2022-10-20T14:49:40;14.60;99.90
29729;DHT22;20055;51.498;11.960;2022-10-20T14:54:44;14.10;99.90
29729;DHT22;20055;51.498;11.960;2022-10-20T14:59:55;14.00;99.90
29729;DHT22;20055;51.498;11.960;2022-10-20T15:02:38;14.00;99.90
29729;DHT22;20055;51.498;11.960;2022-10-20T15:07:56;14.50;99.90
29729;DHT22;20055;51.498;11.960;2022-10-20T15:10:24;14.10;99.90
29729;DHT22;20055;51.498;11.960;2022-10-20T15:12:53;14.60;99.90
29729;DHT22;20055;51.498;11.960;2022-10-20T15:18:13;14.70;99.90
29729;DHT22;20055;51.498;11.960;2022-10-20T15:20:41;14.10;99.90
29729;DHT22;20055;51.498;11.960;2022-10-20T15:23:12;15.00;99.90
29729;DHT22;20055;51.498;11.960;2022-10-20T15:25:44;14.70;99.90
29729;DHT22;20055;51.498;11.960;2022-10-20T15:28:26;14.70;99.90
29729;DHT22;20055;51.498;11.960;2022-10-20T15:30:54;15.10;99.90
29729;DHT22;20055;51.498;11.960;2022-10-20T15:35:47;14.90;99.90
29729;DHT22;20055;51.498;11.960;2022-10-20T15:38:14;14.50;99.90
29729;DHT22;20055;51.498;11.960;2022-10-20T15:43:16;14.40;99.90
29729;DHT22;20055;51.498;11.960;2022-10-20T15:45:49;14.10;99.90
29729;DHT22;20055;51.498;11.960;2022-10-20T15:53:11;13.60;99.90
29729;DHT22;20055;51.498;11.960;2022-10-20T15:55:40;13.70;99.90
29729;DHT22;20055;51.498;11.960;2022-10-20T15:58:07;13.50;99.90
29729;DHT22;20055;51.498;11.960;2022-10-20T16:00:33;12.80;99.90
29729;DHT22;20055;51.498;11.960;2022-10-20T16:03:00;12.80;99.90
29729;DHT22;20055;51.498;11.960;2022-10-20T16:05:26;13.30;99.90
29729;DHT22;20055;51.498;11.960;2022-10-20T16:07:54;13.40;99.90
29729;DHT22;20055;51.498;11.960;2022-10-20T16:10:22;12.90;99.90
29729;DHT22;20055;51.498;11.960;2022-10-20T16:12:48;12.60;99.90
29729;DHT22;20055;51.498;11.960;2022-10-20T16:15:15;12.50;99.90
29729;DHT22;20055;51.498;11.960;2022-10-20T16:17:42;12.90;99.90
29729;DHT22;20055;51.498;11.960;2022-10-20T16:20:10;12.80;99.90
29729;DHT22;20055;51.498;11.960;2022-10-20T16:22:36;12.60;99.90
29729;DHT22;20055;51.498;11.960;2022-10-20T16:25:03;12.70;99.90
29729;DHT22;20055;51.498;11.960;2022-10-20T16:27:31;12.60;99.90
29729;DHT22;20055;51.498;11.960;2022-10-20T16:29:57;13.40;99.90
29729;DHT22;20055;51.498;11.960;2022-10-20T16:32:24;12.60;99.90
29729;DHT22;20055;51.498;11.960;2022-10-20T16:34:51;12.90;99.90
29729;DHT22;20055;51.498;11.960;2022-10-20T16:37:17;12.90;99.90
29729;DHT22;20055;51.498;11.960;2022-10-20T16:39:43;13.00;99.90
29729;DHT22;20055;51.498;11.960;2022-10-20T16:42:10;12.80;99.90
29729;DHT22;20055;51.498;11.960;2022-10-20T16:44:36;12.40;99.90
29729;DHT22;20055;51.498;11.960;2022-10-20T16:47:02;12.70;99.90
29729;DHT22;20055;51.498;11.960;2022-10-20T16:49:29;12.30;99.90
29729;DHT22;20055;51.498;11.960;2022-10-20T16:51:55;12.50;99.90
29729;DHT22;20055;51.498;11.960;2022-10-20T16:54:21;12.40;99.90
29729;DHT22;20055;51.498;11.960;2022-10-20T16:56:47;12.70;99.90
29729;DHT22;20055;51.498;11.960;2022-10-20T16:59:14;12.50;99.90
29729;DHT22;20055;51.498;11.960;2022-10-20T17:01:40;12.10;99.90
29729;DHT22;20055;51.498;11.960;2022-10-20T17:04:06;11.90;99.90
29729;DHT22;20055;51.498;11.960;2022-10-20T17:06:33;12.50;99.90
29729;DHT22;20055;51.498;11.960;2022-10-20T17:08:59;12.20;99.90
29729;DHT22;20055;51.498;11.960;2022-10-20T17:11:28;12.20;99.90
29729;DHT22;20055;51.498;11.960;2022-10-20T17:13:55;12.40;99.90
29729;DHT22;20055;51.498;11.960;2022-10-20T17:16:24;12.40;99.90
29729;DHT22;20055;51.498;11.960;2022-10-20T17:18:52;12.50;99.90
29729;DHT22;20055;51.498;11.960;2022-10-20T17:21:18;12.00;99.90
29729;DHT22;20055;51.498;11.960;2022-10-20T17:23:45;11.80;99.90
29729;DHT22;20055;51.498;11.960;2022-10-20T17:26:14;12.40;99.90
29729;DHT22;20055;51.498;11.960;2022-10-20T17:28:41;12.00;99.90
29729;DHT22;20055;51.498;11.960;2022-10-20T17:31:09;11.60;99.90
29729;DHT22;20055;51.498;11.960;2022-10-20T17:33:36;11.90;99.90
29729;DHT22;20055;51.498;11.960;2022-10-20T17:36:03;11.40;99.90
29729;DHT22;20055;51.498;11.960;2022-10-20T17:38:30;11.90;99.90
29729;DHT22;20055;51.498;11.960;2022-10-20T17:41:04;11.80;99.90
29729;DHT22;20055;51.498;11.960;2022-10-20T17:43:31;11.80;99.90
29729;DHT22;20055;51.498;11.960;2022-10-20T17:46:18;11.60;99.90
29729;DHT22;20055;51.498;11.960;2022-10-20T17:48:45;11.50;99.90
29729;DHT22;20055;51.498;11.960;2022-10-20T17:51:12;11.60;99.90
29729;DHT22;20055;51.498;11.960;2022-10-20T17:53:41;12.00;99.90
29729;DHT22;20055;51.498;11.960;2022-10-20T17:56:16;10.50;99.90
29729;DHT22;20055;51.498;11.960;2022-10-20T17:58:44;11.90;99.90
29729;DHT22;20055;51.498;11.960;2022-10-20T18:01:12;11.50;99.90
29729;DHT22;20055;51.498;11.960;2022-10-20T18:03:40;11.30;99.90
29729;DHT22;20055;51.498;11.960;2022-10-20T18:08:34;11.60;99.90
29729;DHT22;20055;51.498;11.960;2022-10-20T18:11:00;11.70;99.90
29729;DHT22;20055;51.498;11.960;2022-10-20T18:13:26;11.60;99.90
29729;DHT22;20055;51.498;11.960;2022-10-20T18:15:53;11.60;99.90
29729;DHT22;20055;51.498;11.960;2022-10-20T18:18:19;11.90;99.90
29729;DHT22;20055;51.498;11.960;2022-10-20T18:20:55;11.60;99.90
29729;DHT22;20055;51.498;11.960;2022-10-20T18:23:22;11.10;99.90
29729;DHT22;20055;51.498;11.960;2022-10-20T18:25:48;11.80;99.90
29729;DHT22;20055;51.498;11.960;2022-10-20T18:28:14;12.00;99.90
29729;DHT22;20055;51.498;11.960;2022-10-20T18:30:42;11.90;99.90
29729;DHT22;20055;51.498;11.960;2022-10-20T18:33:08;12.00;99.90
29729;DHT22;20055;51.498;11.960;2022-10-20T18:35:38;12.50;99.90
29729;DHT22;20055;51.498;11.960;2022-10-20T18:38:04;11.60;99.90
29729;DHT22;20055;51.498;11.960;2022-10-20T18:40:31;11.90;99.90
29729;DHT22;20055;51.498;11.960;2022-10-20T18:42:58;12.30;99.90
29729;DHT22;20055;51.498;11.960;2022-10-20T18:45:27;12.00;99.90
29729;DHT22;20055;51.498;11.960;2022-10-20T18:47:53;12.20;99.90
29729;DHT22;20055;51.498;11.960;2022-10-20T18:50:20;12.40;99.90
29729;DHT22;20055;51.498;11.960;2022-10-20T18:52:47;12.00;99.90
29729;DHT22;20055;51.498;11.960;2022-10-20T18:55:13;11.70;99.90
29729;DHT22;20055;51.498;11.960;2022-10-20T18:57:39;12.60;99.90
29729;DHT22;20055;51.498;11.960;2022-10-20T19:00:07;12.40;99.90
29729;DHT22;20055;51.498;11.960;2022-10-20T19:02:33;11.90;99.90
29729;DHT22;20055;51.498;11.960;2022-10-20T19:05:03;12.30;99.90
29729;DHT22;20055;51.498;11.960;2022-10-20T19:07:33;12.50;99.90
29729;DHT22;20055;51.498;11.960;2022-10-20T19:09:59;12.20;99.90
29729;DHT22;20055;51.498;11.960;2022-10-20T19:12:26;12.50;99.90
29729;DHT22;20055;51.498;11.960;2022-10-20T19:14:52;12.70;99.90
29729;DHT22;20055;51.498;11.960;2022-10-20T19:17:18;13.10;99.90
29729;DHT22;20055;51.498;11.960;2022-10-20T19:19:44;12.60;99.90
29729;DHT22;20055;51.498;11.960;2022-10-20T19:22:11;12.80;99.90
29729;DHT22;20055;51.498;11.960;2022-10-20T19:24:37;12.00;99.90
29729;DHT22;20055;51.498;11.960;2022-10-20T19:27:06;12.70;99.90
29729;DHT22;20055;51.498;11.960;2022-10-20T19:29:32;12.70;99.90
29729;DHT22;20055;51.498;11.960;2022-10-20T19:32:00;12.40;99.90
29729;DHT22;20055;51.498;11.960;2022-10-20T19:34:31;12.80;99.90
29729;DHT22;20055;51.498;11.960;2022-10-20T19:36:58;12.70;99.90
29729;DHT22;20055;51.498;11.960;2022-10-20T19:39:28;13.00;99.90
29729;DHT22;20055;51.498;11.960;2022-10-20T19:41:56;13.30;99.90
29729;DHT22;20055;51.498;11.960;2022-10-20T19:44:23;13.20;99.90
29729;DHT22;20055;51.498;11.960;2022-10-20T19:46:50;12.70;99.90
29729;DHT22;20055;51.498;11.960;2022-10-20T19:49:17;13.30;99.90
29729;DHT22;20055;51.498;11.960;2022-10-20T19:51:43;13.00;99.90
29729;DHT22;20055;51.498;11.960;2022-10-20T19:54:10;12.70;99.90
29729;DHT22;20055;51.498;11.960;2022-10-20T19:56:37;12.70;99.90
29729;DHT22;20055;51.498;11.960;2022-10-20T19:59:04;13.20;99.90
29729;DHT22;20055;51.498;11.960;2022-10-20T20:01:31;12.90;99.90
29729;DHT22;20055;51.498;11.960;2022-10-20T20:03:57;12.80;99.90
29729;DHT22;20055;51.498;11.960;2022-10-20T20:06:25;13.70;99.90
29729;DHT22;20055;51.498;11.960;2022-10-20T20:08:56;12.60;99.90
29729;DHT22;20055;51.498;11.960;2022-10-20T20:11:25;12.70;99.90